Buckeye, Texas
Current Conditions -  °F | °C
As of 4:53 AM on Saturday 20 Dec 2014 (Local Time) from KLBX Reporting Station
Overcast Overcast  
Wind Chill: 51°   Ceiling: 600
Heat Index: 51°   Visibility: 10mi
Dew Point: 51°   Wind: 8mph
Humidity: 100%   Direction: 360°N
Pressure: 30.12"   Gusts: NA
Location:  28.8997°N, 95.7887°W
Report Text: KLBX 201053Z AUTO 36007KT 10SM OVC006 11/11 A3012 RMK AO2 SLP200 T01060106
Loading
Personal Weather Stations






























Interactive Weather Map New forecast layout! Learn more

10-Day Weather Forecast

Advertisements
Track Severe Weather on mobile